Time;durP1;ratioP1;P1;durP2;ratioP2;P2;SDS_P1;SDS_P2;PMS_P1;PMS_P2;Temp;Humidity;BMP_temperature;BMP_pressure;BME280_temperature;BME280_humidity;BME280_pressure;Samples;Min_cycle;Max_cycle;Signal;HPM_P1;HPM_P2
2022/11/25 00:01:44;;;;;;;;;;;;;;;10.41;52.21;100698.22;4980664;27;97999;-65
2022/11/25 00:04:10;;;;;;;;;;;;;;;10.40;52.25;100685.81;4944963;28;116520;-65
2022/11/25 00:06:36;;;;;;;;;;;;;;;10.41;52.26;100695.50;4960040;28;128021;-66
2022/11/25 00:09:04;;;;;;;;;;;;;;;10.42;52.36;100688.28;4982511;27;98134;-66
2022/11/25 00:11:33;;;;;;;;;;;;;;;10.42;52.25;100685.56;4983577;27;119624;-66
2022/11/25 00:13:58;;;;;;;;;;;;;;;10.42;52.36;100693.66;4982477;28;126048;-64
2022/11/25 00:16:25;;;;;;;;;;;;;;;10.42;51.93;100682.88;4983160;27;128653;-66
2022/11/25 00:18:52;;;;;;;;;;;;;;;10.41;52.19;100700.91;4980691;28;98590;-64
2022/11/25 00:21:19;;;;;;;;;;;;;;;10.40;52.21;100693.09;4984353;28;98869;-66
2022/11/25 00:23:50;;;;;;;;;;;;;;;10.40;52.03;100690.41;4984958;28;100261;-66
2022/11/25 00:26:16;;;;;;;;;;;;;;;10.37;52.17;100690.91;4982760;28;98725;-64
2022/11/25 00:28:43;;;;;;;;;;;;;;;10.36;52.16;100692.00;4982529;28;126636;-66
2022/11/25 00:31:20;;;;;;;;;;;;;;;10.34;51.66;100694.97;4981261;28;121284;-64
2022/11/25 00:33:46;;;;;;;;;;;;;;;10.33;51.93;100696.00;4985728;28;98478;-64
2022/11/25 00:36:19;;;;;;;;;;;;;;;10.32;51.77;100686.31;4983603;28;112147;-66
2022/11/25 00:38:45;;;;;;;;;;;;;;;10.32;52.03;100703.28;4980883;28;108414;-64
2022/11/25 00:46:40;;;;;;;;;;;;;;;10.29;52.27;100698.41;4981485;28;98225;-64
2022/11/25 00:49:06;;;;;;;;;;;;;;;10.29;52.22;100695.72;4982253;28;113495;-64
2022/11/25 00:51:32;;;;;;;;;;;;;;;10.28;51.93;100702.19;4983926;28;97872;-64
2022/11/25 00:53:58;;;;;;;;;;;;;;;10.29;51.79;100700.28;4979225;28;128698;-64
2022/11/25 00:56:24;;;;;;;;;;;;;;;10.29;51.90;100706.50;4983643;28;115803;-66
2022/11/25 00:58:51;;;;;;;;;;;;;;;10.29;52.23;100705.69;4982362;28;127032;-66
2022/11/25 01:01:17;;;;;;;;;;;;;;;10.28;52.25;100698.69;4979437;28;121055;-64
2022/11/25 01:03:43;;;;;;;;;;;;;;;10.27;51.77;100702.44;4982123;28;117923;-67
2022/11/25 01:06:09;;;;;;;;;;;;;;;10.26;52.14;100703.53;4980911;27;128457;-67
2022/11/25 01:08:36;;;;;;;;;;;;;;;10.25;52.33;100699.19;4982254;28;128105;-64
2022/11/25 01:11:12;;;;;;;;;;;;;;;10.24;52.05;100705.63;4984057;27;97938;-64
2022/11/25 01:13:38;;;;;;;;;;;;;;;10.23;51.97;100695.94;4982816;28;98152;-64
2022/11/25 01:16:05;;;;;;;;;;;;;;;10.21;52.26;100701.56;4982253;28;103673;-64
2022/11/25 01:18:31;;;;;;;;;;;;;;;10.21;51.85;100701.56;4982327;28;113071;-64
2022/11/25 01:21:17;;;;;;;;;;;;;;;10.18;52.13;100687.78;4980825;27;115664;-64
2022/11/25 01:23:43;;;;;;;;;;;;;;;10.17;51.80;100692.38;4981997;28;99274;-66
2022/11/25 01:26:11;;;;;;;;;;;;;;;10.15;51.84;100693.72;4974011;28;128477;-64
2022/11/25 01:28:37;;;;;;;;;;;;;;;10.14;52.45;100700.16;4965580;28;98198;-66
2022/11/25 01:31:05;;;;;;;;;;;;;;;10.13;52.00;100690.47;4981431;27;97989;-64
2022/11/25 01:33:31;;;;;;;;;;;;;;;10.11;52.28;100700.69;4974395;28;98753;-64
2022/11/25 01:36:01;;;;;;;;;;;;;;;10.10;52.18;100694.50;4982978;28;99019;-66
2022/11/25 01:38:27;;;;;;;;;;;;;;;10.08;51.98;100693.94;4981224;28;98007;-66
2022/11/25 01:40:53;;;;;;;;;;;;;;;10.06;51.90;100691.50;4965117;28;121276;-64
2022/11/25 01:43:19;;;;;;;;;;;;;;;10.05;52.48;100694.44;4960782;28;128587;-66
2022/11/25 01:45:45;;;;;;;;;;;;;;;10.03;52.14;100688.50;4960423;28;127648;-64
2022/11/25 01:48:25;;;;;;;;;;;;;;;10.01;52.68;100688.75;4982607;28;105116;-66
2022/11/25 01:50:51;;;;;;;;;;;;;;;10.01;52.06;100687.94;4962899;28;99688;-66
2022/11/25 01:53:17;;;;;;;;;;;;;;;9.98;52.21;100689.28;4946469;28;108620;-66
2022/11/25 01:55:47;;;;;;;;;;;;;;;9.97;52.15;100686.84;4979920;28;127836;-66
2022/11/25 01:58:26;;;;;;;;;;;;;;;9.95;52.35;100697.06;4975746;27;104739;-66
2022/11/25 02:00:52;;;;;;;;;;;;;;;9.92;52.54;100695.69;4981465;28;98119;-66
2022/11/25 02:03:35;;;;;;;;;;;;;;;9.91;52.47;100699.47;4980962;28;127711;-64
2022/11/25 02:06:16;;;;;;;;;;;;;;;9.89;52.22;100698.91;4959450;28;128658;-66
2022/11/25 02:08:43;;;;;;;;;;;;;;;9.87;51.75;100698.34;4981599;28;97905;-67
2022/11/25 02:11:13;;;;;;;;;;;;;;;9.85;52.05;100700.47;4938703;28;113161;-64
2022/11/25 02:13:39;;;;;;;;;;;;;;;9.83;52.14;100691.84;4954356;28;123133;-63
2022/11/25 02:16:05;;;;;;;;;;;;;;;9.82;52.39;100687.53;4959328;28;127791;-63
2022/11/25 02:18:31;;;;;;;;;;;;;;;9.80;52.30;100693.19;4980170;28;126850;-64
2022/11/25 02:20:56;;;;;;;;;;;;;;;9.79;52.22;100690.75;4946944;28;121218;-63
2022/11/25 02:23:44;;;;;;;;;;;;;;;9.76;52.26;100689.38;4981525;27;128798;-63
2022/11/25 02:26:11;;;;;;;;;;;;;;;9.75;52.11;100686.94;4950159;28;99137;-63
2022/11/25 02:28:37;;;;;;;;;;;;;;;9.73;51.98;100689.88;4982156;28;98476;-66
2022/11/25 02:31:03;;;;;;;;;;;;;;;9.72;52.53;100692.84;4981609;27;122374;-64
2022/11/25 02:33:29;;;;;;;;;;;;;;;9.70;52.32;100693.06;4980558;28;112205;-66
2022/11/25 02:35:57;;;;;;;;;;;;;;;9.68;52.05;100692.53;4982375;28;98216;-64
2022/11/25 02:38:48;;;;;;;;;;;;;;;9.68;51.74;100689.84;4960526;28;125344;-64
2022/11/25 02:41:24;;;;;;;;;;;;;;;9.66;52.09;100691.97;4980911;27;97831;-66
2022/11/25 02:43:50;;;;;;;;;;;;;;;9.66;51.97;100688.47;4981376;28;123862;-64
2022/11/25 02:46:18;;;;;;;;;;;;;;;9.65;51.95;100689.53;4980253;28;128606;-66
2022/11/25 02:48:44;;;;;;;;;;;;;;;9.64;51.88;100683.34;4980347;28;126320;-63
2022/11/25 02:51:11;;;;;;;;;;;;;;;9.65;51.56;100693.03;4978759;28;122952;-64
2022/11/25 02:53:37;;;;;;;;;;;;;;;9.66;52.48;100693.84;4964079;28;98387;-66
2022/11/25 02:56:03;;;;;;;;;;;;;;;9.66;52.13;100683.06;4980256;28;126803;-64
2022/11/25 02:58:29;;;;;;;;;;;;;;;9.66;52.45;100691.97;4980943;28;124898;-66
2022/11/25 03:00:55;;;;;;;;;;;;;;;9.66;52.50;100688.47;4960350;28;120289;-66
2022/11/25 03:03:21;;;;;;;;;;;;;;;9.67;51.60;100682.00;4959440;28;129564;-65
2022/11/25 03:05:47;;;;;;;;;;;;;;;9.67;51.85;100687.38;4980393;27;127695;-64
2022/11/25 03:08:13;;;;;;;;;;;;;;;9.68;52.45;100692.53;4946573;28;115988;-64
2022/11/25 03:10:39;;;;;;;;;;;;;;;9.68;52.33;100691.72;4961787;28;122569;-64
2022/11/25 03:13:06;;;;;;;;;;;;;;;9.68;51.81;100683.66;4968128;28;129019;-64
2022/11/25 03:15:31;;;;;;;;;;;;;;;9.70;51.77;100692.28;4981381;28;102175;-65
2022/11/25 03:17:57;;;;;;;;;;;;;;;9.70;52.30;100701.16;4980540;28;116943;-64
2022/11/25 03:20:23;;;;;;;;;;;;;;;9.71;52.19;100691.22;4980928;28;122520;-66
2022/11/25 03:22:49;;;;;;;;;;;;;;;9.72;52.53;100698.22;4979919;28;99061;-64
2022/11/25 03:25:15;;;;;;;;;;;;;;;9.70;51.95;100698.47;4960785;28;130511;-64
2022/11/25 03:27:41;;;;;;;;;;;;;;;9.72;52.00;100704.41;4981778;28;98017;-64
2022/11/25 03:30:13;;;;;;;;;;;;;;;9.73;51.94;100694.44;4979651;28;97984;-63
2022/11/25 03:32:39;;;;;;;;;;;;;;;9.74;52.38;100701.47;4981042;27;98234;-64
2022/11/25 03:35:06;;;;;;;;;;;;;;;9.74;51.89;100693.38;4979052;28;128557;-64
2022/11/25 03:37:31;;;;;;;;;;;;;;;9.75;52.09;100703.09;4977526;28;126522;-66
2022/11/25 03:39:57;;;;;;;;;;;;;;;9.75;51.72;100706.59;4983469;27;120204;-64
2022/11/25 03:42:23;;;;;;;;;;;;;;;9.76;52.10;100712.78;4980460;27;127928;-64
2022/11/25 03:44:49;;;;;;;;;;;;;;;9.77;52.34;100711.72;4982111;27;129454;-64
2022/11/25 03:47:15;;;;;;;;;;;;;;;9.77;52.40;100714.41;4983847;28;125651;-66
2022/11/25 03:49:41;;;;;;;;;;;;;;;9.78;52.10;100708.75;4983377;28;124094;-66
2022/11/25 03:52:07;;;;;;;;;;;;;;;9.78;52.20;100706.06;4984215;28;127866;-64
2022/11/25 03:54:33;;;;;;;;;;;;;;;9.79;51.93;100718.47;4984658;28;98130;-64
2022/11/25 03:56:59;;;;;;;;;;;;;;;9.81;52.38;100715.53;4964639;28;127980;-64
2022/11/25 03:59:25;;;;;;;;;;;;;;;9.81;52.04;100716.34;4983241;28;122288;-63
2022/11/25 04:01:51;;;;;;;;;;;;;;;9.81;51.74;100723.59;4982032;28;128311;-64
2022/11/25 04:04:16;;;;;;;;;;;;;;;9.82;51.79;100725.22;4984251;28;127510;-64
2022/11/25 04:06:42;;;;;;;;;;;;;;;9.81;51.66;100720.91;4981971;28;127919;-66
2022/11/25 04:09:10;;;;;;;;;;;;;;;9.82;52.27;100725.22;4984268;28;122704;-66
2022/11/25 04:14:21;;;;;;;;;;;;;;;9.83;51.93;100722.28;4980998;28;98363;-64
2022/11/25 04:16:47;;;;;;;;;;;;;;;9.84;51.76;100725.78;4982270;28;125722;-64
2022/11/25 04:19:13;;;;;;;;;;;;;;;9.86;51.84;100725.53;4983627;28;97826;-66
2022/11/25 04:21:38;;;;;;;;;;;;;;;9.86;52.01;100725.53;4982710;27;126828;-66
2022/11/25 04:24:05;;;;;;;;;;;;;;;9.86;52.41;100725.53;4984554;28;128097;-64
2022/11/25 04:26:31;;;;;;;;;;;;;;;9.86;51.61;100722.81;4981874;28;125437;-64
2022/11/25 04:28:57;;;;;;;;;;;;;;;9.88;51.98;100736.84;4964814;27;121589;-66
2022/11/25 04:31:22;;;;;;;;;;;;;;;9.87;51.99;100733.34;4982551;27;126712;-64
2022/11/25 04:33:48;;;;;;;;;;;;;;;9.88;51.90;100734.97;4982334;28;106298;-66
2022/11/25 04:36:14;;;;;;;;;;;;;;;9.87;51.93;100735.25;4964594;28;128108;-64
2022/11/25 04:38:40;;;;;;;;;;;;;;;9.89;51.85;100727.72;4981460;27;120865;-66
2022/11/25 04:41:06;;;;;;;;;;;;;;;9.88;51.84;100734.97;4962692;28;98981;-64
2022/11/25 04:43:32;;;;;;;;;;;;;;;9.89;51.91;100728.50;4974867;28;128610;-64
2022/11/25 04:45:58;;;;;;;;;;;;;;;9.90;52.20;100730.13;4981826;27;127537;-64
2022/11/25 04:48:24;;;;;;;;;;;;;;;9.91;52.33;100736.34;4961569;28;123433;-66
2022/11/25 04:50:50;;;;;;;;;;;;;;;9.90;51.89;100732.81;4983051;28;102200;-64
2022/11/25 04:53:16;;;;;;;;;;;;;;;9.91;51.99;100731.78;4981631;28;127773;-64
2022/11/25 04:55:42;;;;;;;;;;;;;;;9.91;52.00;100734.47;4981740;27;127112;-66
2022/11/25 04:58:09;;;;;;;;;;;;;;;9.93;51.82;100739.59;4977913;28;121837;-66
2022/11/25 05:00:35;;;;;;;;;;;;;;;9.93;52.33;100739.59;4965217;28;98343;-66
2022/11/25 05:03:01;;;;;;;;;;;;;;;9.93;52.23;100732.31;4982392;28;128366;-66
2022/11/25 05:05:27;;;;;;;;;;;;;;;9.94;52.25;100733.13;4981947;27;129544;-66
2022/11/25 05:07:53;;;;;;;;;;;;;;;9.94;51.99;100736.66;4982575;28;120270;-64
2022/11/25 05:10:19;;;;;;;;;;;;;;;9.94;52.25;100735.81;4982434;28;126004;-64
2022/11/25 05:12:45;;;;;;;;;;;;;;;9.94;52.17;100728.56;4981017;28;128647;-66
2022/11/25 05:15:11;;;;;;;;;;;;;;;9.95;52.01;100732.88;4982503;27;122094;-66
2022/11/25 05:17:37;;;;;;;;;;;;;;;9.96;51.60;100739.09;4982291;28;123410;-64
2022/11/25 05:20:03;;;;;;;;;;;;;;;9.97;51.77;100740.69;4932432;28;129195;-63
2022/11/25 05:22:30;;;;;;;;;;;;;;;9.96;52.30;100745.28;4964852;27;98495;-64
2022/11/25 05:24:56;;;;;;;;;;;;;;;9.97;51.69;100738.81;4983044;28;97856;-64
2022/11/25 05:27:22;;;;;;;;;;;;;;;9.98;52.04;100743.16;4984247;28;98046;-64
2022/11/25 05:29:48;;;;;;;;;;;;;;;9.98;52.48;100748.53;4980984;27;127254;-64
2022/11/25 05:32:14;;;;;;;;;;;;;;;9.98;52.17;100735.06;4981469;28;106775;-64
2022/11/25 05:34:40;;;;;;;;;;;;;;;10.00;51.95;100741.00;4982781;28;98361;-66
2022/11/25 05:37:06;;;;;;;;;;;;;;;10.00;52.13;100738.31;4982730;27;122051;-64
2022/11/25 05:39:32;;;;;;;;;;;;;;;10.00;52.00;100746.38;4981017;28;126001;-64
2022/11/25 05:41:58;;;;;;;;;;;;;;;10.01;52.13;100744.50;4976819;28;128635;-64
2022/11/25 05:44:24;;;;;;;;;;;;;;;10.01;51.43;100739.13;4978329;28;127713;-66
2022/11/25 05:46:50;;;;;;;;;;;;;;;10.02;51.63;100738.03;4958635;28;122725;-64
2022/11/25 05:49:17;;;;;;;;;;;;;;;10.01;52.34;100742.63;4978995;28;99318;-64
2022/11/25 05:51:43;;;;;;;;;;;;;;;10.02;52.11;100743.44;4977483;28;122204;-66
2022/11/25 05:54:08;;;;;;;;;;;;;;;10.03;52.05;100731.59;4959563;28;126310;-66
2022/11/25 05:56:34;;;;;;;;;;;;;;;10.02;51.70;100736.19;4976283;28;121831;-66
2022/11/25 05:59:00;;;;;;;;;;;;;;;10.01;51.86;100733.72;4977190;28;127998;-64
2022/11/25 06:01:26;;;;;;;;;;;;;;;10.02;51.76;100736.19;4958782;28;122728;-63
2022/11/25 06:03:52;;;;;;;;;;;;;;;10.02;52.14;100735.34;4973589;28;98751;-66
2022/11/25 06:06:18;;;;;;;;;;;;;;;10.01;52.11;100737.22;4979440;27;106535;-64
2022/11/25 06:08:44;;;;;;;;;;;;;;;10.01;52.16;100734.53;4977188;28;126461;-64
2022/11/25 06:11:12;;;;;;;;;;;;;;;10.01;51.86;100737.22;4976504;28;127091;-66
2022/11/25 06:13:38;;;;;;;;;;;;;;;10.00;51.74;100737.50;4980486;28;127665;-66
2022/11/25 06:16:16;;;;;;;;;;;;;;;9.98;51.84;100737.78;4981590;28;121097;-66
2022/11/25 06:18:42;;;;;;;;;;;;;;;9.99;51.81;100743.97;4982621;28;98067;-66
2022/11/25 06:21:08;;;;;;;;;;;;;;;9.98;52.46;100745.00;4980437;28;126911;-64
2022/11/25 06:23:35;;;;;;;;;;;;;;;9.95;52.03;100743.66;4980202;28;98651;-64
2022/11/25 06:26:22;;;;;;;;;;;;;;;9.95;52.25;100753.63;4981503;28;97955;-63
2022/11/25 06:28:51;;;;;;;;;;;;;;;9.93;52.05;100751.16;4982381;28;98623;-65
2022/11/25 06:31:18;;;;;;;;;;;;;;;9.93;51.74;100751.16;4978061;28;98412;-64
2022/11/25 06:33:48;;;;;;;;;;;;;;;9.91;52.33;100758.72;4982554;28;98468;-66
2022/11/25 06:36:17;;;;;;;;;;;;;;;9.92;52.33;100762.22;4979778;27;107028;-64
2022/11/25 06:38:47;;;;;;;;;;;;;;;9.90;52.39;100767.84;4981562;28;98408;-66
2022/11/25 06:41:13;;;;;;;;;;;;;;;9.91;51.70;100768.66;4980092;28;98907;-66
2022/11/25 06:43:39;;;;;;;;;;;;;;;9.90;51.70;100770.53;4980757;28;97714;-66
2022/11/25 06:46:06;;;;;;;;;;;;;;;9.89;51.98;100768.09;4978342;28;119807;-64
2022/11/25 06:48:32;;;;;;;;;;;;;;;9.89;52.08;100768.09;4977798;28;126030;-66
2022/11/25 06:50:58;;;;;;;;;;;;;;;9.89;51.69;100770.78;4982384;28;107499;-66
2022/11/25 06:53:25;;;;;;;;;;;;;;;9.88;51.88;100772.66;4981553;28;98325;-64
2022/11/25 06:56:15;;;;;;;;;;;;;;;9.89;51.64;100776.19;4980867;28;121904;-64
2022/11/25 06:58:42;;;;;;;;;;;;;;;9.88;52.02;100778.06;4981746;28;98098;-63
2022/11/25 07:01:16;;;;;;;;;;;;;;;9.89;52.18;100790.44;4980452;28;98471;-64
2022/11/25 07:03:42;;;;;;;;;;;;;;;9.91;51.93;100787.53;4959770;28;103062;-67
2022/11/25 07:06:09;;;;;;;;;;;;;;;9.92;51.59;100789.13;4981601;28;97956;-66
2022/11/25 07:08:35;;;;;;;;;;;;;;;9.92;51.74;100786.44;4965497;28;99655;-64
2022/11/25 07:11:05;;;;;;;;;;;;;;;9.93;52.26;100788.88;4981140;28;98530;-64
2022/11/25 07:13:31;;;;;;;;;;;;;;;9.95;51.59;100783.25;4980167;28;105981;-66
2022/11/25 07:16:02;;;;;;;;;;;;;;;9.96;52.10;100793.75;4981251;28;98085;-66
2022/11/25 07:18:32;;;;;;;;;;;;;;;9.99;51.75;100792.44;4983703;27;98781;-66
2022/11/25 07:21:03;;;;;;;;;;;;;;;10.03;51.43;100801.63;4986956;28;99032;-64
2022/11/25 07:23:28;;;;;;;;;;;;;;;10.06;51.61;100801.09;4984675;28;98764;-64
2022/11/25 07:25:54;;;;;;;;;;;;;;;10.09;51.41;100804.09;4984148;28;121517;-64
2022/11/25 07:28:20;;;;;;;;;;;;;;;10.14;51.43;100799.81;4984842;28;98966;-66
2022/11/25 07:30:46;;;;;;;;;;;;;;;10.18;52.01;100806.31;4988006;28;126737;-66
2022/11/25 07:33:12;;;;;;;;;;;;;;;10.21;51.44;100806.63;4988746;27;127605;-66
2022/11/25 07:35:38;;;;;;;;;;;;;;;10.27;51.66;100815.63;4983189;28;121958;-63
2022/11/25 07:38:04;;;;;;;;;;;;;;;10.31;51.58;100814.84;4984885;28;126805;-63
2022/11/25 07:40:30;;;;;;;;;;;;;;;10.41;51.40;100815.97;4987328;28;126292;-64
2022/11/25 07:42:56;;;;;;;;;;;;;;;10.60;50.88;100814.50;4985916;28;129026;-66
2022/11/25 07:45:23;;;;;;;;;;;;;;;10.86;51.04;100806.59;4985330;28;122443;-64
2022/11/25 07:47:49;;;;;;;;;;;;;;;11.09;50.45;100803.50;4986737;28;99182;-67
2022/11/25 07:50:15;;;;;;;;;;;;;;;11.31;50.43;100803.31;4986593;27;126913;-64
2022/11/25 07:52:41;;;;;;;;;;;;;;;11.50;50.18;100796.34;4986996;28;127470;-65
2022/11/25 07:55:07;;;;;;;;;;;;;;;11.74;49.98;100806.69;4969694;28;97991;-64
2022/11/25 07:57:33;;;;;;;;;;;;;;;11.97;50.05;100800.00;4967985;28;98253;-64
2022/11/25 07:59:59;;;;;;;;;;;;;;;12.21;49.72;100808.41;4969113;28;98692;-66
2022/11/25 08:02:25;;;;;;;;;;;;;;;12.46;49.63;100804.91;4966297;28;127863;-66
2022/11/25 08:04:51;;;;;;;;;;;;;;;12.72;49.40;100805.66;4965823;28;97853;-67
2022/11/25 08:07:17;;;;;;;;;;;;;;;12.96;49.16;100806.69;4972552;28;127982;-66
2022/11/25 08:09:43;;;;;;;;;;;;;;;13.17;49.40;100807.47;4987109;28;99440;-66
2022/11/25 08:12:09;;;;;;;;;;;;;;;13.39;49.44;100809.00;4985251;28;126909;-64
2022/11/25 08:14:35;;;;;;;;;;;;;;;13.57;49.44;100808.41;4967390;28;122748;-66
2022/11/25 08:17:03;;;;;;;;;;;;;;;13.78;49.21;100813.69;4967044;28;98260;-66
2022/11/25 08:19:29;;;;;;;;;;;;;;;13.99;48.96;100813.28;4973895;28;99296;-64
2022/11/25 08:21:55;;;;;;;;;;;;;;;14.27;49.00;100812.84;4984794;27;128048;-64
2022/11/25 08:24:21;;;;;;;;;;;;;;;14.60;48.67;100817.44;4987042;28;122117;-66
2022/11/25 08:26:47;;;;;;;;;;;;;;;14.98;48.41;100814.91;4984694;28;99856;-66
2022/11/25 08:29:14;;;;;;;;;;;;;;;15.33;48.37;100815.59;4985475;27;128762;-64
2022/11/25 08:31:41;;;;;;;;;;;;;;;15.66;48.35;100814.63;4980768;27;98559;-66
2022/11/25 08:34:07;;;;;;;;;;;;;;;15.98;48.19;100815.78;4983812;28;97835;-67
2022/11/25 08:36:33;;;;;;;;;;;;;;;16.30;48.30;100822.38;4983343;28;128984;-64
2022/11/25 08:39:00;;;;;;;;;;;;;;;16.60;47.92;100812.91;4963691;28;116852;-67
2022/11/25 08:41:28;;;;;;;;;;;;;;;16.84;47.95;100819.00;4964728;28;121645;-65
2022/11/25 08:43:55;;;;;;;;;;;;;;;17.07;48.12;100817.22;4983557;28;98193;-65
2022/11/25 08:46:22;;;;;;;;;;;;;;;17.27;48.12;100820.66;4959355;28;120406;-65
2022/11/25 08:48:48;;;;;;;;;;;;;;;17.47;48.01;100816.69;4980230;27;113137;-64
2022/11/25 08:51:25;;;;;;;;;;;;;;;17.64;48.08;100814.13;4980945;27;114211;-67
2022/11/25 08:53:51;;;;;;;;;;;;;;;17.78;48.30;100811.41;4984454;28;98438;-65
2022/11/25 08:56:18;;;;;;;;;;;;;;;17.88;48.49;100816.63;4983554;28;126901;-64
2022/11/25 08:58:44;;;;;;;;;;;;;;;17.97;48.46;100822.19;4982863;28;98752;-67
2022/11/25 09:01:10;;;;;;;;;;;;;;;17.86;48.81;100816.94;4964190;28;127687;-66
2022/11/25 09:03:38;;;;;;;;;;;;;;;17.94;48.92;100812.69;4982729;28;122383;-66
2022/11/25 09:06:04;;;;;;;;;;;;;;;17.96;48.94;100823.28;4982429;28;111151;-65
2022/11/25 09:08:31;;;;;;;;;;;;;;;18.05;48.67;100824.16;4963761;28;98280;-66
2022/11/25 09:10:57;;;;;;;;;;;;;;;18.14;48.88;100827.75;4978919;28;98118;-67
2022/11/25 09:13:23;;;;;;;;;;;;;;;18.30;48.47;100834.44;4981224;28;98177;-62
2022/11/25 09:15:49;;;;;;;;;;;;;;;18.43;48.82;100819.16;4980498;28;127198;-63
2022/11/25 09:18:17;;;;;;;;;;;;;;;18.52;48.81;100817.28;4979595;28;128180;-62
2022/11/25 09:20:43;;;;;;;;;;;;;;;18.61;48.79;100825.50;4980972;28;98572;-64
2022/11/25 09:23:09;;;;;;;;;;;;;;;18.66;48.86;100819.91;4979587;28;121854;-64
2022/11/25 09:25:35;;;;;;;;;;;;;;;18.70;49.07;100823.66;4980815;28;122821;-62
2022/11/25 09:28:01;;;;;;;;;;;;;;;18.72;49.14;100828.81;4962955;28;128541;-62
2022/11/25 09:30:27;;;;;;;;;;;;;;;18.67;49.25;100826.16;4983544;27;121077;-64
2022/11/25 09:32:53;;;;;;;;;;;;;;;18.59;49.38;100822.31;4982070;28;122949;-62
2022/11/25 09:35:20;;;;;;;;;;;;;;;18.52;49.58;100827.38;4982264;28;98383;-62
2022/11/25 09:37:45;;;;;;;;;;;;;;;18.42;49.58;100825.72;4962397;28;125662;-62
2022/11/25 09:40:26;;;;;;;;;;;;;;;18.33;49.89;100828.38;4983381;28;110797;-62
2022/11/25 09:49:29;;;;;;;;;;;;;;;17.91;50.23;100816.00;4948235;28;98609;-64
2022/11/25 09:52:22;;;;;;;;;;;;;;;17.74;50.34;100821.28;4967459;28;99692;-61
2022/11/25 09:55:16;;;;;;;;;;;;;;;17.59;50.52;100819.69;4961962;28;119600;-62
2022/11/25 09:57:55;;;;;;;;;;;;;;;17.44;50.43;100820.81;4982341;28;98602;-64
2022/11/25 10:00:21;;;;;;;;;;;;;;;17.30;50.63;100815.41;4967148;28;98621;-64
2022/11/25 10:03:24;;;;;;;;;;;;;;;17.18;50.80;100815.13;4979676;27;128905;-62
2022/11/25 10:06:13;;;;;;;;;;;;;;;17.05;50.82;100822.16;4962394;28;98019;-62
2022/11/25 10:08:42;;;;;;;;;;;;;;;16.92;50.96;100815.59;4948542;28;112525;-64
2022/11/25 10:11:20;;;;;;;;;;;;;;;16.80;50.92;100817.19;4964602;28;124810;-64
2022/11/25 10:13:56;;;;;;;;;;;;;;;16.69;50.82;100814.63;4981077;28;98237;-62
2022/11/25 10:16:33;;;;;;;;;;;;;;;16.60;50.89;100810.97;4948012;28;115454;-64
2022/11/25 10:19:11;;;;;;;;;;;;;;;16.54;51.01;100811.34;4964602;28;99328;-64
2022/11/25 10:21:37;;;;;;;;;;;;;;;16.49;50.90;100809.53;4944565;28;98215;-64
2022/11/25 10:24:04;;;;;;;;;;;;;;;16.44;50.86;100815.88;4979886;28;127877;-62
2022/11/25 10:26:35;;;;;;;;;;;;;;;16.40;50.97;100816.78;4955528;28;120057;-62
2022/11/25 10:29:18;;;;;;;;;;;;;;;16.34;50.86;100816.03;4960065;28;120811;-64
2022/11/25 10:31:44;;;;;;;;;;;;;;;16.29;51.03;100824.28;4961784;28;99358;-62
2022/11/25 10:34:32;;;;;;;;;;;;;;;16.22;51.08;100820.34;4981006;28;120832;-67
2022/11/25 10:36:58;;;;;;;;;;;;;;;16.17;51.01;100822.03;4950393;28;98130;-65
2022/11/25 10:39:26;;;;;;;;;;;;;;;16.12;50.94;100819.41;4950341;28;127768;-65
2022/11/25 10:41:58;;;;;;;;;;;;;;;16.06;50.97;100812.41;4976192;28;98032;-67
2022/11/25 10:44:28;;;;;;;;;;;;;;;16.01;50.95;100812.50;4980607;28;97861;-67
2022/11/25 10:47:30;;;;;;;;;;;;;;;15.94;51.14;100815.56;4979560;28;118259;-67
2022/11/25 10:50:03;;;;;;;;;;;;;;;15.88;51.09;100814.06;4976900;28;98430;-67
2022/11/25 10:52:32;;;;;;;;;;;;;;;15.84;50.98;100807.59;4962287;27;99422;-65
2022/11/25 10:55:08;;;;;;;;;;;;;;;15.80;51.02;100808.44;4962215;28;125317;-65
2022/11/25 10:57:34;;;;;;;;;;;;;;;15.77;51.11;100806.34;4979246;28;119355;-65
2022/11/25 11:00:02;;;;;;;;;;;;;;;15.74;51.14;100802.28;4963071;28;120999;-64
2022/11/25 11:02:37;;;;;;;;;;;;;;;15.70;50.98;100803.97;4978200;28;97886;-65
2022/11/25 11:05:09;;;;;;;;;;;;;;;15.67;51.19;100804.56;4962884;28;98241;-64
2022/11/25 11:07:43;;;;;;;;;;;;;;;15.65;51.08;100798.63;4980947;28;97867;-63
2022/11/25 11:10:21;;;;;;;;;;;;;;;15.62;51.13;100808.13;4962934;28;117947;-64
2022/11/25 11:13:01;;;;;;;;;;;;;;;15.59;51.02;100797.03;4980901;28;98220;-62
2022/11/25 11:15:28;;;;;;;;;;;;;;;15.55;51.21;100801.44;4962833;28;123876;-62
2022/11/25 11:17:54;;;;;;;;;;;;;;;15.51;51.26;100803.13;4981282;28;97800;-64
2022/11/25 11:20:30;;;;;;;;;;;;;;;15.46;51.32;100801.28;4979429;28;107868;-62
2022/11/25 11:23:12;;;;;;;;;;;;;;;15.42;51.31;100800.25;4961866;28;103390;-64
2022/11/25 11:25:39;;;;;;;;;;;;;;;15.37;51.39;100792.97;4977899;28;98398;-65
2022/11/25 11:28:24;;;;;;;;;;;;;;;15.32;51.33;100797.66;4963669;28;122694;-62
2022/11/25 11:31:16;;;;;;;;;;;;;;;15.25;51.36;100784.44;4980390;28;99419;-62
2022/11/25 11:34:06;;;;;;;;;;;;;;;15.21;51.26;100789.66;4968556;28;98834;-63
2022/11/25 11:36:53;;;;;;;;;;;;;;;15.20;51.25;100788.00;4978443;28;97882;-65
2022/11/25 11:39:31;;;;;;;;;;;;;;;15.19;51.34;100786.41;4979537;28;97951;-62
2022/11/25 11:42:00;;;;;;;;;;;;;;;15.19;51.29;100786.41;4958757;28;98320;-65
2022/11/25 11:44:39;;;;;;;;;;;;;;;15.18;51.27;100787.50;4966713;28;100854;-63
2022/11/25 11:47:19;;;;;;;;;;;;;;;15.18;51.08;100787.50;4958245;28;99413;-65
2022/11/25 11:49:55;;;;;;;;;;;;;;;15.18;51.23;100784.00;4959620;28;97932;-67
2022/11/25 11:52:28;;;;;;;;;;;;;;;15.18;51.17;100786.72;4959393;28;126568;-64
2022/11/25 11:54:59;;;;;;;;;;;;;;;15.18;51.05;100784.00;4961551;28;103863;-65
2022/11/25 11:58:08;;;;;;;;;;;;;;;15.20;51.09;100781.78;4960754;28;125313;-65
2022/11/25 12:00:37;;;;;;;;;;;;;;;15.19;51.15;100783.69;4945237;28;102712;-65
2022/11/25 12:03:10;;;;;;;;;;;;;;;15.21;51.22;100777.97;4942535;28;119737;-64
2022/11/25 12:05:37;;;;;;;;;;;;;;;15.23;51.07;100776.56;4982225;27;99409;-65
2022/11/25 12:08:26;;;;;;;;;;;;;;;15.26;51.00;100777.09;4983428;28;98549;-67
2022/11/25 12:11:03;;;;;;;;;;;;;;;15.27;50.85;100779.53;4966058;28;120003;-66
2022/11/25 12:13:47;;;;;;;;;;;;;;;15.30;51.05;100784.38;4967149;28;98955;-64
2022/11/25 12:16:30;;;;;;;;;;;;;;;15.33;50.80;100783.00;4963272;28;98814;-67
2022/11/25 12:18:58;;;;;;;;;;;;;;;15.34;50.97;100774.53;4978769;28;110436;-65
2022/11/25 12:21:40;;;;;;;;;;;;;;;15.36;50.91;100774.25;4964338;28;98731;-67
2022/11/25 12:24:24;;;;;;;;;;;;;;;15.38;50.82;100769.34;4980485;28;99071;-65
2022/11/25 12:27:01;;;;;;;;;;;;;;;15.39;50.87;100774.47;4971079;28;125936;-65
2022/11/25 12:29:36;;;;;;;;;;;;;;;15.42;50.93;100770.38;4962350;28;98379;-67
2022/11/25 12:32:39;;;;;;;;;;;;;;;15.43;50.91;100770.06;4964829;28;98025;-66
2022/11/25 12:35:24;;;;;;;;;;;;;;;15.43;50.92;100772.78;4982919;28;98320;-64
2022/11/25 12:37:57;;;;;;;;;;;;;;;15.46;50.85;100774.13;4982056;28;98094;-65
2022/11/25 12:40:44;;;;;;;;;;;;;;;15.52;50.93;100777.56;4941638;28;108433;-65
2022/11/25 12:43:31;;;;;;;;;;;;;;;15.60;50.89;100771.47;4980761;28;97936;-65
2022/11/25 12:46:18;;;;;;;;;;;;;;;15.68;50.91;100766.25;4980789;28;98712;-67
2022/11/25 12:48:43;;;;;;;;;;;;;;;15.74;50.91;100769.69;4943052;28;100644;-66
2022/11/25 12:51:23;;;;;;;;;;;;;;;15.78;50.98;100773.41;4981604;28;127324;-64
2022/11/25 12:53:58;;;;;;;;;;;;;;;15.80;50.77;100771.22;4982128;28;119274;-64
2022/11/25 12:56:32;;;;;;;;;;;;;;;15.82;50.92;100776.34;4941627;28;119237;-65
2022/11/25 12:59:36;;;;;;;;;;;;;;;15.81;51.01;100770.13;4969646;28;128175;-66
2022/11/25 13:02:23;;;;;;;;;;;;;;;15.81;50.96;100767.41;4923332;28;97976;-65
2022/11/25 13:05:03;;;;;;;;;;;;;;;15.79;51.04;100768.78;4920993;28;98411;-64